Time;durP1;ratioP1;P1;durP2;ratioP2;P2;SDS_P1;SDS_P2;PMS_P1;PMS_P2;Temp;Humidity;BMP_temperature;BMP_pressure;BME280_temperature;BME280_humidity;BME280_pressure;Samples;Min_cycle;Max_cycle;Signal;HPM_P1;HPM_P2
2022/01/27 00:01:07;;;;;;;;;;;5.80;99.90;;;;;;5066550;28;19916;-45
2022/01/27 00:03:48;;;;;;;;;;;5.80;99.90;;;;;;5061768;28;19924;-42
2022/01/27 00:06:16;;;;;;;;;;;5.80;99.90;;;;;;5066384;28;20350;-43
2022/01/27 00:08:48;;;;;;;;;;;5.80;99.90;;;;;;5061514;28;19916;-44
2022/01/27 00:11:15;;;;;;;;;;;5.80;99.90;;;;;;5068221;28;19923;-44
2022/01/27 00:13:47;;;;;;;;;;;5.80;99.90;;;;;;5066910;28;19922;-45
2022/01/27 00:16:27;;;;;;;;;;;5.80;99.90;;;;;;5063363;28;20350;-44
2022/01/27 00:18:54;;;;;;;;;;;5.80;99.90;;;;;;5067919;28;20401;-44
2022/01/27 00:21:21;;;;;;;;;;;5.80;99.90;;;;;;5051418;28;19963;-44
2022/01/27 00:23:47;;;;;;;;;;;5.80;99.90;;;;;;5063966;28;20231;-44
2022/01/27 00:26:14;;;;;;;;;;;5.80;99.90;;;;;;5064135;28;19923;-43
2022/01/27 00:28:40;;;;;;;;;;;5.80;99.90;;;;;;5061593;28;19916;-44
2022/01/27 00:31:05;;;;;;;;;;;5.80;99.90;;;;;;5068396;28;19916;-44
2022/01/27 00:33:31;;;;;;;;;;;5.80;99.90;;;;;;5053249;28;19985;-43
2022/01/27 00:35:57;;;;;;;;;;;5.80;99.90;;;;;;5065825;28;20204;-43
2022/01/27 00:38:22;;;;;;;;;;;5.70;99.90;;;;;;5045113;28;19928;-43
2022/01/27 00:40:48;;;;;;;;;;;5.70;99.90;;;;;;5065528;28;19947;-44
2022/01/27 00:43:14;;;;;;;;;;;5.70;99.90;;;;;;5083141;28;19932;-44
2022/01/27 00:45:40;;;;;;;;;;;5.70;99.90;;;;;;5064581;28;19952;-44
2022/01/27 00:48:06;;;;;;;;;;;5.70;99.90;;;;;;5079743;28;19924;-44
2022/01/27 00:50:34;;;;;;;;;;;5.70;99.90;;;;;;5060620;28;20327;-45
2022/01/27 00:53:03;;;;;;;;;;;5.60;99.90;;;;;;5067732;28;19920;-43
2022/01/27 00:55:33;;;;;;;;;;;5.60;99.90;;;;;;5066034;28;20315;-46
2022/01/27 00:58:09;;;;;;;;;;;5.60;99.90;;;;;;5056901;28;19934;-45
2022/01/27 01:00:44;;;;;;;;;;;5.60;99.90;;;;;;5048677;28;20380;-44
2022/01/27 01:03:21;;;;;;;;;;;5.60;99.90;;;;;;5067685;28;19916;-43
2022/01/27 01:06:07;;;;;;;;;;;5.60;99.90;;;;;;5048569;28;20030;-42
2022/01/27 01:09:40;;;;;;;;;;;5.60;99.90;;;;;;5073474;28;20488;-45
2022/01/27 01:22:00;;;;;;;;;;;5.50;99.90;;;;;;5065370;28;20316;-43
2022/01/27 01:32:50;;;;;;;;;;;5.40;99.90;;;;;;5082520;28;20308;-46
2022/01/27 01:35:17;;;;;;;;;;;5.40;99.90;;;;;;5070129;28;19923;-44
2022/01/27 01:37:44;;;;;;;;;;;5.30;99.90;;;;;;5049062;28;20301;-43
2022/01/27 01:40:11;;;;;;;;;;;5.30;99.90;;;;;;5082034;28;19924;-42
2022/01/27 01:42:37;;;;;;;;;;;5.20;99.90;;;;;;5084334;28;19997;-44
2022/01/27 01:45:04;;;;;;;;;;;5.20;99.90;;;;;;5066256;28;19916;-43
2022/01/27 01:47:30;;;;;;;;;;;5.20;99.90;;;;;;5049178;28;19931;-43
2022/01/27 01:49:55;;;;;;;;;;;5.20;99.90;;;;;;5026039;28;19917;-46
2022/01/27 01:52:22;;;;;;;;;;;5.20;99.90;;;;;;5064023;28;20314;-43
2022/01/27 01:54:47;;;;;;;;;;;5.30;99.90;;;;;;5062430;28;19916;-43
2022/01/27 01:57:13;;;;;;;;;;;5.20;99.90;;;;;;5051852;28;19931;-43
2022/01/27 01:59:39;;;;;;;;;;;5.30;99.90;;;;;;5032474;28;20007;-43
2022/01/27 02:02:05;;;;;;;;;;;5.30;99.90;;;;;;5050925;28;19916;-43
2022/01/27 02:04:30;;;;;;;;;;;5.20;99.90;;;;;;5050767;28;19921;-44
2022/01/27 02:07:00;;;;;;;;;;;5.20;99.90;;;;;;5058748;28;19916;-43
2022/01/27 02:09:47;;;;;;;;;;;5.20;99.90;;;;;;5048612;28;19924;-44
2022/01/27 02:18:01;;;;;;;;;;;5.20;99.90;;;;;;5050437;28;20404;-43
2022/01/27 02:20:28;;;;;;;;;;;5.20;99.90;;;;;;5047858;28;20346;-45
2022/01/27 02:22:53;;;;;;;;;;;5.20;99.90;;;;;;5062881;28;20029;-44
2022/01/27 02:25:19;;;;;;;;;;;5.20;99.90;;;;;;5062962;28;20386;-43
2022/01/27 02:27:45;;;;;;;;;;;5.20;99.90;;;;;;5046821;28;19916;-43
2022/01/27 02:30:11;;;;;;;;;;;5.30;99.90;;;;;;5064851;28;19966;-43
2022/01/27 02:32:37;;;;;;;;;;;5.30;99.90;;;;;;5064718;28;20266;-44
2022/01/27 02:35:03;;;;;;;;;;;5.40;99.90;;;;;;5067293;28;19974;-45
2022/01/27 02:37:29;;;;;;;;;;;5.40;99.90;;;;;;5077389;28;19931;-44
2022/01/27 02:39:55;;;;;;;;;;;5.40;99.90;;;;;;5083292;28;19916;-42
2022/01/27 02:42:21;;;;;;;;;;;5.40;99.90;;;;;;5050672;28;20378;-43
2022/01/27 02:44:53;;;;;;;;;;;5.40;99.90;;;;;;5064956;28;20337;-45
2022/01/27 02:47:19;;;;;;;;;;;5.40;99.90;;;;;;5080417;28;19920;-45
2022/01/27 02:49:44;;;;;;;;;;;5.40;99.90;;;;;;5065100;28;20358;-43
2022/01/27 02:52:11;;;;;;;;;;;5.50;99.90;;;;;;5078721;28;19921;-45
2022/01/27 02:54:37;;;;;;;;;;;5.40;99.90;;;;;;5061462;28;19921;-44
2022/01/27 02:57:03;;;;;;;;;;;5.40;99.90;;;;;;5044205;28;19943;-43
2022/01/27 02:59:29;;;;;;;;;;;5.50;99.90;;;;;;5063720;28;19917;-44
2022/01/27 03:01:55;;;;;;;;;;;5.50;99.90;;;;;;5070375;28;19943;-44
2022/01/27 03:04:21;;;;;;;;;;;5.50;99.90;;;;;;5068337;28;19976;-44
2022/01/27 03:06:47;;;;;;;;;;;5.50;99.90;;;;;;5067194;28;19999;-44
2022/01/27 03:09:13;;;;;;;;;;;5.50;99.90;;;;;;5080126;28;20142;-43
2022/01/27 03:11:44;;;;;;;;;;;5.50;99.90;;;;;;5063407;28;19916;-45
2022/01/27 03:14:09;;;;;;;;;;;5.50;99.90;;;;;;5068041;28;19985;-46
2022/01/27 03:16:35;;;;;;;;;;;5.50;99.90;;;;;;5050602;28;20378;-43
2022/01/27 03:19:01;;;;;;;;;;;5.50;99.90;;;;;;5031599;28;19932;-45
2022/01/27 03:21:27;;;;;;;;;;;5.50;99.90;;;;;;5063843;28;19924;-44
2022/01/27 03:23:53;;;;;;;;;;;5.50;99.90;;;;;;5047509;28;19928;-44
2022/01/27 03:26:19;;;;;;;;;;;5.60;99.90;;;;;;5061532;28;19999;-43
2022/01/27 03:28:46;;;;;;;;;;;5.50;99.90;;;;;;5048304;28;19920;-45
2022/01/27 03:31:15;;;;;;;;;;;5.50;99.90;;;;;;5061316;28;19999;-44
2022/01/27 03:33:41;;;;;;;;;;;5.60;99.90;;;;;;5067369;28;19921;-44
2022/01/27 03:36:08;;;;;;;;;;;5.50;99.90;;;;;;5064944;28;19917;-44
2022/01/27 03:38:34;;;;;;;;;;;5.60;99.90;;;;;;5048029;28;20349;-45
2022/01/27 03:41:04;;;;;;;;;;;5.60;99.90;;;;;;5069043;28;19956;-47
2022/01/27 03:43:31;;;;;;;;;;;5.60;99.90;;;;;;5050231;28;19920;-44
2022/01/27 03:45:57;;;;;;;;;;;5.60;99.90;;;;;;5052332;28;20450;-43
2022/01/27 03:48:23;;;;;;;;;;;5.60;99.90;;;;;;5045603;28;20004;-44
2022/01/27 03:50:48;;;;;;;;;;;5.60;99.90;;;;;;5070759;28;19915;-44
2022/01/27 03:53:15;;;;;;;;;;;5.60;99.90;;;;;;5101075;28;19920;-43
2022/01/27 03:55:41;;;;;;;;;;;5.70;99.90;;;;;;5096572;27;19925;-44
2022/01/27 03:58:07;;;;;;;;;;;5.60;99.90;;;;;;5098077;27;19940;-44
2022/01/27 04:00:33;;;;;;;;;;;5.60;99.90;;;;;;5065288;28;20271;-43
2022/01/27 04:03:04;;;;;;;;;;;5.70;99.90;;;;;;5068605;28;20397;-45
2022/01/27 04:05:39;;;;;;;;;;;5.70;99.90;;;;;;5095441;28;20337;-43
2022/01/27 04:08:06;;;;;;;;;;;5.70;99.90;;;;;;5093570;28;20410;-46
2022/01/27 04:10:32;;;;;;;;;;;5.70;99.90;;;;;;5064317;28;20023;-44
2022/01/27 04:12:58;;;;;;;;;;;5.70;99.90;;;;;;5103445;28;19927;-45
2022/01/27 04:15:23;;;;;;;;;;;5.70;99.90;;;;;;5047967;28;20295;-42
2022/01/27 04:17:49;;;;;;;;;;;5.70;99.90;;;;;;5065995;28;19965;-44
2022/01/27 04:20:15;;;;;;;;;;;5.70;99.90;;;;;;5067293;28;19920;-43
2022/01/27 04:22:41;;;;;;;;;;;5.70;99.90;;;;;;5066932;28;19990;-45
2022/01/27 04:25:07;;;;;;;;;;;5.70;99.90;;;;;;5100063;28;19924;-43
2022/01/27 04:27:36;;;;;;;;;;;5.70;99.90;;;;;;5063510;28;19924;-44
2022/01/27 04:30:04;;;;;;;;;;;5.70;99.90;;;;;;5097533;28;19917;-44
2022/01/27 04:32:38;;;;;;;;;;;5.70;99.90;;;;;;5066388;28;20453;-43
2022/01/27 04:35:06;;;;;;;;;;;5.70;99.90;;;;;;5068054;28;20011;-45
2022/01/27 04:37:34;;;;;;;;;;;5.70;99.90;;;;;;5065259;28;19927;-44
2022/01/27 04:40:08;;;;;;;;;;;5.70;99.90;;;;;;5091237;28;19924;-44
2022/01/27 04:42:54;;;;;;;;;;;5.70;99.90;;;;;;5061524;28;19928;-44
2022/01/27 04:45:23;;;;;;;;;;;5.70;99.90;;;;;;5065815;28;19930;-43
2022/01/27 04:47:54;;;;;;;;;;;5.70;99.90;;;;;;5064571;28;20007;-44
2022/01/27 04:50:20;;;;;;;;;;;5.80;99.90;;;;;;5048596;28;19926;-45
2022/01/27 04:52:48;;;;;;;;;;;5.80;99.90;;;;;;5069259;28;19920;-46
2022/01/27 04:55:16;;;;;;;;;;;5.80;99.90;;;;;;5070809;28;20340;-44
2022/01/27 04:57:44;;;;;;;;;;;5.80;99.90;;;;;;5068970;28;19924;-44
2022/01/27 05:00:12;;;;;;;;;;;5.80;99.90;;;;;;5049172;28;19923;-45
2022/01/27 05:02:49;;;;;;;;;;;5.80;99.90;;;;;;5084099;28;19924;-44
2022/01/27 05:05:14;;;;;;;;;;;5.80;99.90;;;;;;5066986;28;20033;-44
2022/01/27 05:07:40;;;;;;;;;;;5.80;99.90;;;;;;5055911;28;20380;-45
2022/01/27 05:10:13;;;;;;;;;;;5.80;99.90;;;;;;5070005;28;20002;-43
2022/01/27 05:12:46;;;;;;;;;;;5.80;99.90;;;;;;5065993;28;19917;-44
2022/01/27 05:15:12;;;;;;;;;;;5.70;99.90;;;;;;5070123;28;19967;-44
2022/01/27 05:17:38;;;;;;;;;;;5.70;99.90;;;;;;5052072;28;19990;-44
2022/01/27 05:20:04;;;;;;;;;;;5.70;99.90;;;;;;5083873;28;19924;-44
2022/01/27 05:22:31;;;;;;;;;;;5.70;99.90;;;;;;5064455;28;19924;-44
2022/01/27 05:24:57;;;;;;;;;;;5.70;99.90;;;;;;5045465;28;19917;-44
2022/01/27 05:27:23;;;;;;;;;;;5.70;99.90;;;;;;5065911;28;19924;-46
2022/01/27 05:29:51;;;;;;;;;;;5.70;99.90;;;;;;5051930;28;19924;-43
2022/01/27 05:32:17;;;;;;;;;;;5.70;99.90;;;;;;5069519;28;19920;-43
2022/01/27 05:34:43;;;;;;;;;;;5.70;99.90;;;;;;5067233;28;20378;-46
2022/01/27 05:37:09;;;;;;;;;;;5.60;99.90;;;;;;5084399;28;19979;-43
2022/01/27 05:39:34;;;;;;;;;;;5.70;99.90;;;;;;5071882;28;19921;-44
2022/01/27 05:42:03;;;;;;;;;;;5.70;99.90;;;;;;5080512;28;20038;-43
2022/01/27 05:44:31;;;;;;;;;;;5.70;99.90;;;;;;5068221;28;19924;-43
2022/01/27 05:46:57;;;;;;;;;;;5.60;99.90;;;;;;5085081;28;19939;-43
2022/01/27 05:49:22;;;;;;;;;;;5.70;99.90;;;;;;5045070;28;20038;-44
2022/01/27 05:51:48;;;;;;;;;;;5.70;99.90;;;;;;5066245;28;20393;-44
2022/01/27 05:54:14;;;;;;;;;;;5.70;99.90;;;;;;5068883;28;19931;-44
2022/01/27 05:56:40;;;;;;;;;;;5.70;99.90;;;;;;5051899;28;20513;-44
2022/01/27 05:59:06;;;;;;;;;;;5.70;99.90;;;;;;5083202;28;20031;-45
2022/01/27 06:01:32;;;;;;;;;;;5.80;99.90;;;;;;5065726;28;19921;-46
2022/01/27 06:03:57;;;;;;;;;;;5.80;99.90;;;;;;5050196;28;19924;-45
2022/01/27 06:06:23;;;;;;;;;;;5.70;99.90;;;;;;5066073;28;20024;-44
2022/01/27 06:08:49;;;;;;;;;;;5.80;99.90;;;;;;5070397;28;19974;-45
2022/01/27 06:11:14;;;;;;;;;;;5.80;99.90;;;;;;5049051;28;20311;-45
2022/01/27 06:13:40;;;;;;;;;;;5.80;99.90;;;;;;5066351;28;19924;-43
2022/01/27 06:16:10;;;;;;;;;;;5.80;99.90;;;;;;5067260;28;20011;-44
2022/01/27 06:18:37;;;;;;;;;;;5.80;99.90;;;;;;5070742;28;19927;-46
2022/01/27 06:21:05;;;;;;;;;;;5.80;99.90;;;;;;5081842;28;19989;-44
2022/01/27 06:23:31;;;;;;;;;;;5.80;99.90;;;;;;5049767;28;20003;-45
2022/01/27 06:25:58;;;;;;;;;;;5.90;99.90;;;;;;5066950;28;19928;-45
2022/01/27 06:28:23;;;;;;;;;;;5.90;99.90;;;;;;5052381;28;20353;-46
2022/01/27 06:30:49;;;;;;;;;;;5.90;99.90;;;;;;5049640;28;19959;-47
2022/01/27 06:33:16;;;;;;;;;;;5.90;99.90;;;;;;5052741;28;20387;-44
2022/01/27 06:35:42;;;;;;;;;;;5.90;99.90;;;;;;5048854;28;20031;-44
2022/01/27 06:38:07;;;;;;;;;;;5.90;99.90;;;;;;5053197;28;20003;-47
2022/01/27 06:40:33;;;;;;;;;;;6.00;99.90;;;;;;5034253;28;19916;-48
2022/01/27 06:42:59;;;;;;;;;;;6.00;99.90;;;;;;5082079;28;19970;-45
2022/01/27 06:45:25;;;;;;;;;;;6.00;99.90;;;;;;5035124;28;19997;-49
2022/01/27 06:47:50;;;;;;;;;;;6.00;99.90;;;;;;5035935;28;19978;-44
2022/01/27 06:50:16;;;;;;;;;;;6.00;99.90;;;;;;5088694;28;20660;-45
2022/01/27 06:52:42;;;;;;;;;;;6.00;99.90;;;;;;5065259;28;19934;-48
2022/01/27 06:55:08;;;;;;;;;;;6.10;99.90;;;;;;5050237;28;19954;-46
2022/01/27 06:57:34;;;;;;;;;;;6.10;99.90;;;;;;5070321;28;19931;-45
2022/01/27 07:00:00;;;;;;;;;;;6.10;99.90;;;;;;5054086;28;19920;-46
2022/01/27 07:02:26;;;;;;;;;;;6.10;99.90;;;;;;5054072;28;19949;-46
2022/01/27 07:04:52;;;;;;;;;;;6.10;99.90;;;;;;5073246;28;20001;-45
2022/01/27 07:07:18;;;;;;;;;;;6.10;99.90;;;;;;5077464;28;19919;-47
2022/01/27 07:09:44;;;;;;;;;;;6.20;99.90;;;;;;5067368;28;20345;-45
2022/01/27 07:12:10;;;;;;;;;;;6.20;99.90;;;;;;5094233;28;20297;-44
2022/01/27 07:14:35;;;;;;;;;;;6.20;99.90;;;;;;5066487;28;20363;-44
2022/01/27 07:17:03;;;;;;;;;;;6.20;99.90;;;;;;5064323;28;19923;-46
2022/01/27 07:19:28;;;;;;;;;;;6.20;99.90;;;;;;5068083;28;19924;-45
2022/01/27 07:21:54;;;;;;;;;;;6.20;99.90;;;;;;5068275;28;19916;-46
2022/01/27 07:24:20;;;;;;;;;;;6.30;99.90;;;;;;5103486;27;19916;-45
2022/01/27 07:26:46;;;;;;;;;;;6.30;99.90;;;;;;5069386;28;19959;-50
2022/01/27 07:29:12;;;;;;;;;;;6.30;99.90;;;;;;5049436;28;20011;-45
2022/01/27 07:31:37;;;;;;;;;;;6.30;99.90;;;;;;5066295;28;20146;-44
2022/01/27 07:34:03;;;;;;;;;;;6.30;99.90;;;;;;5100203;27;19988;-46
2022/01/27 07:36:31;;;;;;;;;;;6.30;99.90;;;;;;5049755;28;20003;-46
2022/01/27 07:38:58;;;;;;;;;;;6.30;99.90;;;;;;5072299;28;19920;-44
2022/01/27 07:41:24;;;;;;;;;;;6.40;99.90;;;;;;5048413;28;19922;-45
2022/01/27 07:43:50;;;;;;;;;;;6.40;99.90;;;;;;5095155;27;19916;-44
2022/01/27 07:46:16;;;;;;;;;;;6.40;99.90;;;;;;5097732;27;19923;-46
2022/01/27 07:48:42;;;;;;;;;;;6.40;99.90;;;;;;5064626;28;19916;-46
2022/01/27 07:51:08;;;;;;;;;;;6.40;99.90;;;;;;5057400;28;20579;-43
2022/01/27 07:53:35;;;;;;;;;;;6.50;99.90;;;;;;5066652;28;19996;-44
2022/01/27 07:56:04;;;;;;;;;;;6.50;99.90;;;;;;5065064;28;19925;-45
2022/01/27 07:58:38;;;;;;;;;;;6.50;99.90;;;;;;5047872;28;19920;-46
2022/01/27 08:01:04;;;;;;;;;;;6.50;99.90;;;;;;5053096;28;19974;-44
2022/01/27 08:03:29;;;;;;;;;;;6.60;99.90;;;;;;5042791;28;19928;-43
2022/01/27 08:05:55;;;;;;;;;;;6.60;99.90;;;;;;5048114;28;19966;-44
2022/01/27 08:08:21;;;;;;;;;;;6.70;99.90;;;;;;5058991;28;19920;-47
2022/01/27 08:10:48;;;;;;;;;;;6.70;99.90;;;;;;5085503;28;19969;-46
2022/01/27 08:13:14;;;;;;;;;;;6.70;99.90;;;;;;5065947;28;19920;-44
2022/01/27 08:15:39;;;;;;;;;;;6.80;99.90;;;;;;5048157;28;20419;-46
2022/01/27 08:18:05;;;;;;;;;;;6.80;99.90;;;;;;5050417;28;19921;-46
2022/01/27 08:20:31;;;;;;;;;;;6.80;99.90;;;;;;5067204;28;19939;-45
2022/01/27 08:22:57;;;;;;;;;;;6.80;99.90;;;;;;5021166;28;20542;-46
2022/01/27 08:25:23;;;;;;;;;;;6.90;99.90;;;;;;5074552;28;19916;-45
2022/01/27 08:27:52;;;;;;;;;;;6.90;99.90;;;;;;5073778;28;19925;-45
2022/01/27 08:30:19;;;;;;;;;;;6.90;99.90;;;;;;5055792;28;19927;-43
2022/01/27 08:35:23;;;;;;;;;;;7.00;99.90;;;;;;5037770;28;19916;-43
2022/01/27 08:37:49;;;;;;;;;;;7.00;99.90;;;;;;5056568;28;19935;-44
2022/01/27 08:40:15;;;;;;;;;;;7.10;99.90;;;;;;5053694;28;19916;-44
2022/01/27 08:42:42;;;;;;;;;;;7.30;99.90;;;;;;5072188;28;19994;-44
2022/01/27 08:45:09;;;;;;;;;;;7.10;99.90;;;;;;5071969;28;20444;-48
2022/01/27 08:47:35;;;;;;;;;;;7.20;99.90;;;;;;5039109;28;19938;-45
2022/01/27 08:50:01;;;;;;;;;;;7.20;99.90;;;;;;5073042;28;20358;-45
2022/01/27 08:52:27;;;;;;;;;;;7.20;99.90;;;;;;5032911;28;19927;-45
2022/01/27 08:54:52;;;;;;;;;;;7.20;99.90;;;;;;5051873;28;19917;-45
2022/01/27 08:57:18;;;;;;;;;;;7.20;99.90;;;;;;5072888;28;20006;-47
2022/01/27 08:59:44;;;;;;;;;;;7.20;99.90;;;;;;5073087;28;19916;-50
2022/01/27 09:02:10;;;;;;;;;;;7.30;99.90;;;;;;5056513;28;19924;-45
2022/01/27 09:04:36;;;;;;;;;;;7.30;99.90;;;;;;5046719;28;19963;-44
2022/01/27 09:07:01;;;;;;;;;;;7.30;99.90;;;;;;5056865;28;19990;-44
2022/01/27 09:09:27;;;;;;;;;;;7.30;99.90;;;;;;5072666;28;19916;-44
2022/01/27 09:11:55;;;;;;;;;;;7.30;99.90;;;;;;5073825;28;19917;-45
2022/01/27 09:14:22;;;;;;;;;;;7.40;99.90;;;;;;5071573;28;19917;-46
2022/01/27 09:16:48;;;;;;;;;;;7.40;99.90;;;;;;5054860;28;19959;-44
2022/01/27 09:19:15;;;;;;;;;;;7.40;99.90;;;;;;5073026;28;19971;-45
2022/01/27 09:21:46;;;;;;;;;;;7.40;99.90;;;;;;5072014;28;19966;-45
2022/01/27 09:24:15;;;;;;;;;;;7.50;99.90;;;;;;5087514;28;19985;-45
2022/01/27 09:26:53;;;;;;;;;;;7.50;99.90;;;;;;5056035;28;20236;-45
2022/01/27 09:29:20;;;;;;;;;;;7.50;99.90;;;;;;5056652;28;20401;-45
2022/01/27 09:31:47;;;;;;;;;;;7.50;99.90;;;;;;5069611;28;19916;-46
2022/01/27 09:34:13;;;;;;;;;;;7.50;99.90;;;;;;5052385;28;19963;-45
2022/01/27 09:36:39;;;;;;;;;;;7.50;99.90;;;;;;5081615;28;19956;-46
2022/01/27 09:39:05;;;;;;;;;;;7.60;99.90;;;;;;5070848;28;19921;-45
2022/01/27 09:41:33;;;;;;;;;;;7.70;99.90;;;;;;5072815;28;19927;-45
2022/01/27 09:44:01;;;;;;;;;;;7.80;99.90;;;;;;5051172;28;20406;-47
2022/01/27 09:46:27;;;;;;;;;;;7.70;99.90;;;;;;5052365;28;20370;-45
2022/01/27 09:48:54;;;;;;;;;;;7.80;99.90;;;;;;5054202;28;19916;-44
2022/01/27 09:53:46;;;;;;;;;;;7.90;99.90;;;;;;5068073;28;19932;-46
2022/01/27 09:56:12;;;;;;;;;;;7.90;99.90;;;;;;5032448;28;19939;-44
2022/01/27 09:58:39;;;;;;;;;;;8.00;99.90;;;;;;5049499;28;19924;-44
2022/01/27 10:01:05;;;;;;;;;;;8.00;99.90;;;;;;5059687;28;19916;-46
2022/01/27 10:03:31;;;;;;;;;;;8.00;99.90;;;;;;5066044;28;19946;-48
2022/01/27 10:06:12;;;;;;;;;;;8.10;99.90;;;;;;5069036;28;19920;-44
2022/01/27 10:08:40;;;;;;;;;;;8.10;99.90;;;;;;5041938;28;19950;-45
2022/01/27 10:11:14;;;;;;;;;;;8.10;99.90;;;;;;5086365;28;19921;-46
2022/01/27 10:13:43;;;;;;;;;;;7.90;99.90;;;;;;5067141;28;19916;-45
2022/01/27 10:16:26;;;;;;;;;;;8.20;99.90;;;;;;5050350;28;19920;-45
2022/01/27 10:19:02;;;;;;;;;;;8.10;99.90;;;;;;5084421;28;20002;-45
2022/01/27 10:21:31;;;;;;;;;;;8.20;99.90;;;;;;5051766;28;19924;-46
2022/01/27 10:24:12;;;;;;;;;;;8.20;99.90;;;;;;5065927;28;19921;-48
2022/01/27 10:26:42;;;;;;;;;;;8.20;99.90;;;;;;5068483;28;19986;-44
2022/01/27 10:29:16;;;;;;;;;;;8.20;99.90;;;;;;5048270;28;19920;-46
2022/01/27 10:31:42;;;;;;;;;;;8.30;99.90;;;;;;5067960;28;19973;-47
2022/01/27 10:34:10;;;;;;;;;;;8.10;99.90;;;;;;5066054;28;19924;-45
2022/01/27 10:36:40;;;;;;;;;;;8.30;99.90;;;;;;5036135;28;19916;-44
2022/01/27 10:39:08;;;;;;;;;;;8.30;99.90;;;;;;5045088;28;19927;-44
2022/01/27 10:41:35;;;;;;;;;;;8.30;99.90;;;;;;5064127;28;19917;-45
2022/01/27 10:44:05;;;;;;;;;;;8.40;99.90;;;;;;5065479;28;19969;-46
2022/01/27 10:46:32;;;;;;;;;;;8.50;99.90;;;;;;5050387;28;19920;-46
2022/01/27 10:49:03;;;;;;;;;;;8.60;99.90;;;;;;5063127;28;19928;-46
2022/01/27 10:51:34;;;;;;;;;;;8.60;99.90;;;;;;5064436;28;19920;-44
2022/01/27 10:54:06;;;;;;;;;;;8.70;99.90;;;;;;5066450;28;19931;-45
2022/01/27 10:56:33;;;;;;;;;;;8.70;99.90;;;;;;5049950;28;20568;-45
2022/01/27 10:59:00;;;;;;;;;;;8.70;99.90;;;;;;5069252;28;19921;-46
2022/01/27 11:01:46;;;;;;;;;;;8.80;99.90;;;;;;5049729;28;20256;-47
2022/01/27 11:04:13;;;;;;;;;;;8.80;99.90;;;;;;5068032;28;19924;-45
2022/01/27 11:06:39;;;;;;;;;;;;;;;;;;5048376;28;19932;-46
2022/01/27 11:09:09;;;;;;;;;;;8.60;99.90;;;;;;5051549;28;19916;-46
2022/01/27 11:11:38;;;;;;;;;;;8.70;99.90;;;;;;5069425;28;19947;-44
2022/01/27 11:14:04;;;;;;;;;;;8.70;99.90;;;;;;5064537;28;19916;-47
2022/01/27 11:16:36;;;;;;;;;;;8.70;99.90;;;;;;5064825;28;19916;-45
2022/01/27 11:21:59;;;;;;;;;;;8.70;99.90;;;;;;5063422;28;19955;-47
2022/01/27 11:24:32;;;;;;;;;;;8.70;99.90;;;;;;5047324;28;20385;-44
2022/01/27 11:27:00;;;;;;;;;;;8.60;99.90;;;;;;5046159;28;20461;-44
2022/01/27 11:29:26;;;;;;;;;;;8.70;99.90;;;;;;5068752;28;19927;-45
2022/01/27 11:31:57;;;;;;;;;;;8.70;99.90;;;;;;5076402;28;19916;-46
2022/01/27 11:34:42;;;;;;;;;;;8.70;99.90;;;;;;5067107;28;19917;-46
2022/01/27 11:37:08;;;;;;;;;;;8.70;99.90;;;;;;5061781;28;19964;-44
2022/01/27 11:39:47;;;;;;;;;;;8.80;99.90;;;;;;5066978;28;20047;-44
2022/01/27 11:42:13;;;;;;;;;;;8.80;99.90;;;;;;5049351;28;19985;-45
2022/01/27 11:44:42;;;;;;;;;;;8.80;99.90;;;;;;5083367;28;19920;-44
2022/01/27 11:47:12;;;;;;;;;;;8.80;99.90;;;;;;5068475;28;19938;-45
2022/01/27 11:52:29;;;;;;;;;;;8.80;99.90;;;;;;5066566;28;19983;-45
2022/01/27 11:54:55;;;;;;;;;;;8.80;99.90;;;;;;5067070;28;20398;-45
2022/01/27 11:57:40;;;;;;;;;;;8.80;99.90;;;;;;5067082;28;19974;-46
2022/01/27 12:00:07;;;;;;;;;;;8.80;99.90;;;;;;5067710;28;20012;-46
2022/01/27 12:02:53;;;;;;;;;;;8.80;99.90;;;;;;5046273;28;20253;-46
2022/01/27 12:05:19;;;;;;;;;;;8.80;99.90;;;;;;5064093;28;19920;-45
2022/01/27 12:08:03;;;;;;;;;;;8.80;99.90;;;;;;5066056;28;19922;-46
2022/01/27 12:11:01;;;;;;;;;;;8.80;99.90;;;;;;5068059;28;19927;-46
2022/01/27 12:19:02;;;;;;;;;;;8.90;99.90;;;;;;5042722;28;19924;-45
2022/01/27 12:21:32;;;;;;;;;;;8.90;99.90;;;;;;5045969;28;19921;-45
2022/01/27 12:24:10;;;;;;;;;;;8.90;99.90;;;;;;5046961;28;19924;-45
2022/01/27 12:26:53;;;;;;;;;;;9.00;99.90;;;;;;5066707;28;19946;-48
2022/01/27 12:29:34;;;;;;;;;;;9.00;99.90;;;;;;5081498;28;20350;-45
2022/01/27 12:32:01;;;;;;;;;;;8.90;99.90;;;;;;5065094;28;19924;-44
2022/01/27 12:34:28;;;;;;;;;;;9.00;99.90;;;;;;5048545;28;20278;-45
2022/01/27 12:36:58;;;;;;;;;;;8.90;99.90;;;;;;5057829;28;20061;-45
2022/01/27 12:39:25;;;;;;;;;;;8.90;99.90;;;;;;5029848;28;20480;-44
2022/01/27 12:41:51;;;;;;;;;;;8.90;99.90;;;;;;5052270;28;20385;-44
2022/01/27 12:44:17;;;;;;;;;;;9.00;99.90;;;;;;5063535;28;19917;-45
2022/01/27 12:47:07;;;;;;;;;;;9.00;99.90;;;;;;5051164;28;19916;-45
2022/01/27 12:49:36;;;;;;;;;;;9.00;99.90;;;;;;5066045;28;19917;-45
2022/01/27 12:52:05;;;;;;;;;;;9.00;99.90;;;;;;5044778;28;20260;-46
2022/01/27 12:54:31;;;;;;;;;;;9.00;99.90;;;;;;5047494;28;19928;-44
2022/01/27 12:56:57;;;;;;;;;;;9.00;99.90;;;;;;5061814;28;20341;-46
2022/01/27 12:59:23;;;;;;;;;;;9.10;99.90;;;;;;5064840;28;19920;-45
2022/01/27 13:02:00;;;;;;;;;;;9.00;99.90;;;;;;5063117;28;19927;-46
2022/01/27 13:04:26;;;;;;;;;;;9.10;99.90;;;;;;5067888;28;20011;-45
2022/01/27 13:06:53;;;;;;;;;;;9.10;99.90;;;;;;5049653;28;19920;-48
2022/01/27 13:09:19;;;;;;;;;;;9.00;99.90;;;;;;5050835;28;19969;-45
2022/01/27 13:11:46;;;;;;;;;;;9.00;99.90;;;;;;5071470;28;20270;-44
2022/01/27 13:14:12;;;;;;;;;;;9.00;99.90;;;;;;5073007;28;20003;-44
2022/01/27 13:16:42;;;;;;;;;;;9.00;99.90;;;;;;5038633;28;20417;-46
2022/01/27 13:19:20;;;;;;;;;;;8.90;99.90;;;;;;5085719;28;19934;-46
2022/01/27 13:21:51;;;;;;;;;;;9.00;99.90;;;;;;5073837;28;20332;-46
2022/01/27 13:24:18;;;;;;;;;;;8.90;99.90;;;;;;5068191;28;20338;-45
2022/01/27 13:26:44;;;;;;;;;;;8.90;99.90;;;;;;5049317;28;19987;-44
2022/01/27 13:29:11;;;;;;;;;;;9.00;99.90;;;;;;5049939;28;20008;-46
2022/01/27 13:31:38;;;;;;;;;;;8.90;99.90;;;;;;5049265;28;20367;-45
2022/01/27 13:34:03;;;;;;;;;;;8.90;99.90;;;;;;5071474;28;19997;-47
2022/01/27 13:36:34;;;;;;;;;;;8.90;99.90;;;;;;5067077;28;19932;-50
2022/01/27 13:41:35;;;;;;;;;;;8.80;99.90;;;;;;5067371;28;20321;-47
2022/01/27 13:44:01;;;;;;;;;;;8.80;99.90;;;;;;5049457;28;19947;-45
2022/01/27 13:46:34;;;;;;;;;;;8.80;99.90;;;;;;5034537;28;19996;-45
2022/01/27 13:49:23;;;;;;;;;;;8.90;99.90;;;;;;5069961;28;19921;-44
2022/01/27 13:51:50;;;;;;;;;;;8.80;99.90;;;;;;5071222;28;19924;-45
2022/01/27 13:54:16;;;;;;;;;;;8.80;99.90;;;;;;5087401;28;19924;-44
2022/01/27 13:56:44;;;;;;;;;;;8.70;99.90;;;;;;5090843;28;20011;-44
2022/01/27 13:59:16;;;;;;;;;;;8.70;99.90;;;;;;5073515;28;19920;-48
2022/01/27 14:01:42;;;;;;;;;;;8.70;99.90;;;;;;5059776;28;19928;-45
2022/01/27 14:04:09;;;;;;;;;;;8.70;99.90;;;;;;5054227;28;19951;-47
2022/01/27 14:06:48;;;;;;;;;;;8.60;99.90;;;;;;5091316;28;19916;-45
2022/01/27 14:09:15;;;;;;;;;;;8.50;99.90;;;;;;5104935;27;21129;-44
2022/01/27 14:11:41;;;;;;;;;;;8.60;99.90;;;;;;5088239;28;20357;-44
2022/01/27 14:14:08;;;;;;;;;;;8.60;99.90;;;;;;5070524;28;20375;-44
2022/01/27 14:16:34;;;;;;;;;;;8.50;99.90;;;;;;5088589;28;20282;-45
2022/01/27 14:19:18;;;;;;;;;;;8.40;99.90;;;;;;5071951;28;19953;-45
2022/01/27 14:21:44;;;;;;;;;;;8.40;99.90;;;;;;5101188;27;19924;-43
2022/01/27 14:24:20;;;;;;;;;;;8.30;99.90;;;;;;5073553;28;19920;-45
2022/01/27 14:27:00;;;;;;;;;;;8.30;99.90;;;;;;5087135;28;19931;-44
2022/01/27 14:29:26;;;;;;;;;;;8.20;99.90;;;;;;5071285;28;19922;-46
2022/01/27 14:31:53;;;;;;;;;;;8.10;99.90;;;;;;5073176;28;19917;-46
2022/01/27 14:34:28;;;;;;;;;;;8.10;99.90;;;;;;5074750;28;19963;-44
2022/01/27 14:36:54;;;;;;;;;;;8.00;99.90;;;;;;5071095;28;19966;-45
2022/01/27 14:39:20;;;;;;;;;;;7.90;99.90;;;;;;5085265;28;19960;-44
2022/01/27 14:41:46;;;;;;;;;;;7.90;99.90;;;;;;5090785;28;20001;-43
2022/01/27 14:44:12;;;;;;;;;;;7.90;99.90;;;;;;5104900;27;19967;-44
2022/01/27 14:46:44;;;;;;;;;;;7.90;99.90;;;;;;5084141;28;20006;-44
2022/01/27 14:49:12;;;;;;;;;;;8.00;99.90;;;;;;5051678;28;19916;-44
2022/01/27 14:51:39;;;;;;;;;;;8.00;99.90;;;;;;5074272;28;19996;-44
2022/01/27 14:54:05;;;;;;;;;;;8.00;99.90;;;;;;5068714;28;20001;-45
2022/01/27 14:56:32;;;;;;;;;;;7.90;99.90;;;;;;5050836;28;19985;-45
2022/01/27 14:58:59;;;;;;;;;;;7.90;99.90;;;;;;5081948;28;20378;-47
2022/01/27 15:01:24;;;;;;;;;;;7.80;99.90;;;;;;5067702;28;19932;-45
2022/01/27 15:03:50;;;;;;;;;;;7.70;99.90;;;;;;5051916;28;19916;-48
2022/01/27 15:06:17;;;;;;;;;;;7.70;99.90;;;;;;5032490;28;19921;-44
2022/01/27 15:08:42;;;;;;;;;;;7.60;99.90;;;;;;5051210;28;19946;-48
2022/01/27 15:11:08;;;;;;;;;;;7.60;99.90;;;;;;5069287;28;19920;-45
2022/01/27 15:13:41;;;;;;;;;;;7.50;99.90;;;;;;5066143;28;19930;-45
2022/01/27 15:18:59;;;;;;;;;;;7.50;99.90;;;;;;5067083;28;19932;-45
2022/01/27 15:21:25;;;;;;;;;;;7.40;99.90;;;;;;5068744;28;19920;-45
2022/01/27 15:23:51;;;;;;;;;;;7.30;99.90;;;;;;5033767;28;19938;-46